sensor_id;sensor_type;location;lat;lon;timestamp;P1;durP1;ratioP1;P2;durP2;ratioP2
6354;SDS011;3210;48.708;9.030;2023-05-29T06:32:41;10.70;;;4.40;;
6354;SDS011;3210;48.708;9.030;2023-05-29T06:35:08;7.17;;;4.13;;
6354;SDS011;3210;48.708;9.030;2023-05-29T06:37:35;9.83;;;5.13;;
6354;SDS011;3210;48.708;9.030;2023-05-29T06:40:02;7.30;;;4.53;;
6354;SDS011;3210;48.708;9.030;2023-05-29T06:42:30;8.00;;;4.60;;
6354;SDS011;3210;48.708;9.030;2023-05-29T06:44:57;5.70;;;3.90;;
6354;SDS011;3210;48.708;9.030;2023-05-29T06:47:25;8.40;;;4.67;;
6354;SDS011;3210;48.708;9.030;2023-05-29T06:49:52;7.03;;;3.60;;
6354;SDS011;3210;48.708;9.030;2023-05-29T06:52:19;8.13;;;3.90;;
6354;SDS011;3210;48.708;9.030;2023-05-29T06:54:46;7.87;;;4.10;;
6354;SDS011;3210;48.708;9.030;2023-05-29T06:57:12;10.50;;;4.07;;
6354;SDS011;3210;48.708;9.030;2023-05-29T06:59:39;6.67;;;4.07;;
6354;SDS011;3210;48.708;9.030;2023-05-29T07:02:06;9.47;;;3.60;;
6354;SDS011;3210;48.708;9.030;2023-05-29T07:04:34;8.13;;;4.30;;
6354;SDS011;3210;48.708;9.030;2023-05-29T07:07:01;4.13;;;3.13;;
6354;SDS011;3210;48.708;9.030;2023-05-29T07:09:28;5.53;;;3.57;;
6354;SDS011;3210;48.708;9.030;2023-05-29T07:11:55;6.73;;;4.37;;
6354;SDS011;3210;48.708;9.030;2023-05-29T07:14:22;9.73;;;3.60;;
6354;SDS011;3210;48.708;9.030;2023-05-29T07:16:48;5.37;;;3.33;;
6354;SDS011;3210;48.708;9.030;2023-05-29T07:19:15;10.83;;;4.60;;
6354;SDS011;3210;48.708;9.030;2023-05-29T07:21:43;6.40;;;3.77;;
6354;SDS011;3210;48.708;9.030;2023-05-29T07:24:10;6.17;;;3.70;;
6354;SDS011;3210;48.708;9.030;2023-05-29T07:26:37;5.20;;;3.43;;
6354;SDS011;3210;48.708;9.030;2023-05-29T07:29:04;9.83;;;4.27;;
6354;SDS011;3210;48.708;9.030;2023-05-29T07:31:30;5.00;;;3.33;;
6354;SDS011;3210;48.708;9.030;2023-05-29T07:33:57;5.20;;;3.43;;
6354;SDS011;3210;48.708;9.030;2023-05-29T07:36:28;14.20;;;4.07;;
6354;SDS011;3210;48.708;9.030;2023-05-29T07:38:57;6.17;;;4.00;;
6354;SDS011;3210;48.708;9.030;2023-05-29T07:41:24;5.43;;;3.47;;
6354;SDS011;3210;48.708;9.030;2023-05-29T07:43:52;4.23;;;2.87;;
6354;SDS011;3210;48.708;9.030;2023-05-29T07:46:20;8.30;;;3.80;;
6354;SDS011;3210;48.708;9.030;2023-05-29T07:48:47;5.00;;;3.60;;
6354;SDS011;3210;48.708;9.030;2023-05-29T07:51:14;9.10;;;4.30;;
6354;SDS011;3210;48.708;9.030;2023-05-29T07:53:40;4.87;;;3.30;;
6354;SDS011;3210;48.708;9.030;2023-05-29T07:56:11;9.40;;;3.87;;
6354;SDS011;3210;48.708;9.030;2023-05-29T07:58:38;5.50;;;3.97;;
6354;SDS011;3210;48.708;9.030;2023-05-29T08:01:06;9.27;;;4.57;;
6354;SDS011;3210;48.708;9.030;2023-05-29T08:03:33;12.90;;;4.37;;
6354;SDS011;3210;48.708;9.030;2023-05-29T08:06:00;8.43;;;4.13;;
6354;SDS011;3210;48.708;9.030;2023-05-29T08:08:26;9.07;;;4.30;;
6354;SDS011;3210;48.708;9.030;2023-05-29T08:10:53;8.10;;;5.27;;
6354;SDS011;3210;48.708;9.030;2023-05-29T08:13:21;5.80;;;3.93;;
6354;SDS011;3210;48.708;9.030;2023-05-29T08:15:48;6.10;;;3.70;;
6354;SDS011;3210;48.708;9.030;2023-05-29T08:18:15;9.83;;;4.27;;
6354;SDS011;3210;48.708;9.030;2023-05-29T08:20:42;3.40;;;2.87;;
6354;SDS011;3210;48.708;9.030;2023-05-29T08:23:09;7.97;;;4.57;;
6354;SDS011;3210;48.708;9.030;2023-05-29T08:25:36;9.20;;;4.30;;
6354;SDS011;3210;48.708;9.030;2023-05-29T08:28:03;7.33;;;3.60;;
6354;SDS011;3210;48.708;9.030;2023-05-29T08:30:31;8.03;;;3.90;;
6354;SDS011;3210;48.708;9.030;2023-05-29T08:32:58;5.93;;;4.10;;
6354;SDS011;3210;48.708;9.030;2023-05-29T08:35:25;10.63;;;4.43;;
6354;SDS011;3210;48.708;9.030;2023-05-29T08:37:52;7.27;;;3.77;;
6354;SDS011;3210;48.708;9.030;2023-05-29T08:40:18;7.77;;;3.90;;
6354;SDS011;3210;48.708;9.030;2023-05-29T08:42:46;16.40;;;4.10;;
6354;SDS011;3210;48.708;9.030;2023-05-29T08:45:17;8.63;;;5.17;;
6354;SDS011;3210;48.708;9.030;2023-05-29T08:47:48;9.83;;;5.43;;
6354;SDS011;3210;48.708;9.030;2023-05-29T08:50:19;8.30;;;4.60;;
6354;SDS011;3210;48.708;9.030;2023-05-29T08:52:46;6.90;;;4.30;;
6354;SDS011;3210;48.708;9.030;2023-05-29T08:55:13;11.00;;;3.50;;
6354;SDS011;3210;48.708;9.030;2023-05-29T08:57:40;6.00;;;3.07;;
6354;SDS011;3210;48.708;9.030;2023-05-29T09:00:09;5.30;;;3.50;;
6354;SDS011;3210;48.708;9.030;2023-05-29T09:02:38;6.90;;;3.87;;
6354;SDS011;3210;48.708;9.030;2023-05-29T09:05:07;7.97;;;3.77;;
6354;SDS011;3210;48.708;9.030;2023-05-29T09:07:35;6.27;;;4.13;;
6354;SDS011;3210;48.708;9.030;2023-05-29T09:10:03;5.37;;;3.40;;
6354;SDS011;3210;48.708;9.030;2023-05-29T09:12:31;8.33;;;4.20;;
6354;SDS011;3210;48.708;9.030;2023-05-29T09:15:00;7.00;;;3.73;;
6354;SDS011;3210;48.708;9.030;2023-05-29T09:17:30;7.10;;;4.50;;
6354;SDS011;3210;48.708;9.030;2023-05-29T09:19:57;6.97;;;3.67;;
6354;SDS011;3210;48.708;9.030;2023-05-29T09:22:25;6.27;;;3.20;;
6354;SDS011;3210;48.708;9.030;2023-05-29T09:24:52;6.60;;;3.70;;
6354;SDS011;3210;48.708;9.030;2023-05-29T09:27:20;9.03;;;4.10;;
6354;SDS011;3210;48.708;9.030;2023-05-29T09:29:48;6.27;;;4.20;;
6354;SDS011;3210;48.708;9.030;2023-05-29T09:32:15;12.70;;;3.63;;
6354;SDS011;3210;48.708;9.030;2023-05-29T09:34:42;10.67;;;3.90;;
6354;SDS011;3210;48.708;9.030;2023-05-29T09:37:10;11.57;;;4.50;;
6354;SDS011;3210;48.708;9.030;2023-05-29T09:39:48;9.27;;;4.40;;
6354;SDS011;3210;48.708;9.030;2023-05-29T09:42:16;6.93;;;3.73;;
6354;SDS011;3210;48.708;9.030;2023-05-29T09:44:44;5.20;;;3.73;;
6354;SDS011;3210;48.708;9.030;2023-05-29T09:47:13;6.00;;;3.93;;
6354;SDS011;3210;48.708;9.030;2023-05-29T09:49:41;6.50;;;3.80;;
6354;SDS011;3210;48.708;9.030;2023-05-29T09:52:08;7.63;;;3.50;;
6354;SDS011;3210;48.708;9.030;2023-05-29T09:54:39;8.30;;;3.80;;
6354;SDS011;3210;48.708;9.030;2023-05-29T09:57:08;9.13;;;4.63;;
6354;SDS011;3210;48.708;9.030;2023-05-29T09:59:36;5.23;;;3.93;;
6354;SDS011;3210;48.708;9.030;2023-05-29T10:02:04;9.60;;;4.10;;
6354;SDS011;3210;48.708;9.030;2023-05-29T10:04:32;8.93;;;4.47;;
6354;SDS011;3210;48.708;9.030;2023-05-29T10:07:00;10.93;;;4.60;;
6354;SDS011;3210;48.708;9.030;2023-05-29T10:09:32;4.83;;;3.57;;
6354;SDS011;3210;48.708;9.030;2023-05-29T10:12:01;7.50;;;3.50;;
6354;SDS011;3210;48.708;9.030;2023-05-29T10:14:34;5.60;;;3.37;;
6354;SDS011;3210;48.708;9.030;2023-05-29T10:17:02;4.17;;;3.40;;
6354;SDS011;3210;48.708;9.030;2023-05-29T10:19:35;5.60;;;3.60;;
6354;SDS011;3210;48.708;9.030;2023-05-29T10:22:03;10.63;;;4.20;;
6354;SDS011;3210;48.708;9.030;2023-05-29T10:24:31;6.30;;;3.60;;
6354;SDS011;3210;48.708;9.030;2023-05-29T10:26:58;6.40;;;3.80;;
6354;SDS011;3210;48.708;9.030;2023-05-29T10:29:26;4.90;;;4.27;;
6354;SDS011;3210;48.708;9.030;2023-05-29T10:32:16;7.03;;;3.90;;
6354;SDS011;3210;48.708;9.030;2023-05-29T10:34:48;6.17;;;3.10;;
6354;SDS011;3210;48.708;9.030;2023-05-29T10:37:25;8.80;;;3.73;;
6354;SDS011;3210;48.708;9.030;2023-05-29T10:40:08;10.30;;;4.20;;
6354;SDS011;3210;48.708;9.030;2023-05-29T10:42:41;5.57;;;3.80;;
6354;SDS011;3210;48.708;9.030;2023-05-29T10:45:09;6.73;;;3.87;;
6354;SDS011;3210;48.708;9.030;2023-05-29T10:47:38;9.27;;;4.47;;
6354;SDS011;3210;48.708;9.030;2023-05-29T10:50:05;8.03;;;4.20;;
6354;SDS011;3210;48.708;9.030;2023-05-29T10:52:32;5.50;;;3.80;;
6354;SDS011;3210;48.708;9.030;2023-05-29T10:55:00;8.20;;;4.30;;
6354;SDS011;3210;48.708;9.030;2023-05-29T10:57:29;8.93;;;2.80;;
6354;SDS011;3210;48.708;9.030;2023-05-29T11:00:04;5.07;;;3.60;;
6354;SDS011;3210;48.708;9.030;2023-05-29T11:02:39;8.00;;;4.00;;
6354;SDS011;3210;48.708;9.030;2023-05-29T11:05:20;5.10;;;4.00;;
6354;SDS011;3210;48.708;9.030;2023-05-29T11:07:52;3.63;;;3.13;;
6354;SDS011;3210;48.708;9.030;2023-05-29T11:13:12;6.93;;;3.40;;
6354;SDS011;3210;48.708;9.030;2023-05-29T11:16:03;7.00;;;3.40;;
6354;SDS011;3210;48.708;9.030;2023-05-29T11:18:42;4.80;;;3.30;;
6354;SDS011;3210;48.708;9.030;2023-05-29T11:21:27;9.90;;;4.00;;
6354;SDS011;3210;48.708;9.030;2023-05-29T11:23:57;6.70;;;3.50;;
6354;SDS011;3210;48.708;9.030;2023-05-29T11:26:27;5.13;;;3.30;;
6354;SDS011;3210;48.708;9.030;2023-05-29T11:28:57;7.10;;;3.60;;
6354;SDS011;3210;48.708;9.030;2023-05-29T11:31:24;4.60;;;3.57;;
6354;SDS011;3210;48.708;9.030;2023-05-29T11:33:54;5.87;;;2.90;;
6354;SDS011;3210;48.708;9.030;2023-05-29T11:36:25;10.43;;;3.80;;
6354;SDS011;3210;48.708;9.030;2023-05-29T11:38:52;8.83;;;4.03;;
6354;SDS011;3210;48.708;9.030;2023-05-29T11:41:19;6.03;;;3.30;;
6354;SDS011;3210;48.708;9.030;2023-05-29T11:43:55;6.10;;;3.27;;
6354;SDS011;3210;48.708;9.030;2023-05-29T11:46:23;5.97;;;2.77;;
6354;SDS011;3210;48.708;9.030;2023-05-29T11:48:51;6.43;;;2.90;;
6354;SDS011;3210;48.708;9.030;2023-05-29T11:51:19;4.63;;;3.43;;
6354;SDS011;3210;48.708;9.030;2023-05-29T11:53:46;5.60;;;3.67;;
6354;SDS011;3210;48.708;9.030;2023-05-29T11:56:14;7.60;;;3.37;;
6354;SDS011;3210;48.708;9.030;2023-05-29T11:58:41;8.03;;;3.83;;
6354;SDS011;3210;48.708;9.030;2023-05-29T12:01:08;8.03;;;3.80;;
6354;SDS011;3210;48.708;9.030;2023-05-29T12:03:39;5.10;;;3.27;;
6354;SDS011;3210;48.708;9.030;2023-05-29T12:06:08;5.17;;;3.17;;
6354;SDS011;3210;48.708;9.030;2023-05-29T12:08:36;7.27;;;3.07;;
6354;SDS011;3210;48.708;9.030;2023-05-29T12:11:03;4.83;;;3.07;;
6354;SDS011;3210;48.708;9.030;2023-05-29T12:13:30;8.37;;;3.23;;
6354;SDS011;3210;48.708;9.030;2023-05-29T12:16:00;4.37;;;2.80;;
6354;SDS011;3210;48.708;9.030;2023-05-29T12:18:29;9.83;;;3.03;;
6354;SDS011;3210;48.708;9.030;2023-05-29T12:20:56;7.40;;;2.90;;
6354;SDS011;3210;48.708;9.030;2023-05-29T12:23:26;3.80;;;2.93;;
6354;SDS011;3210;48.708;9.030;2023-05-29T12:25:54;4.60;;;3.67;;
6354;SDS011;3210;48.708;9.030;2023-05-29T12:28:21;10.30;;;3.20;;
6354;SDS011;3210;48.708;9.030;2023-05-29T12:30:48;6.03;;;3.60;;
6354;SDS011;3210;48.708;9.030;2023-05-29T12:33:24;10.40;;;3.40;;
6354;SDS011;3210;48.708;9.030;2023-05-29T12:35:54;3.80;;;2.47;;
6354;SDS011;3210;48.708;9.030;2023-05-29T12:38:21;5.30;;;2.80;;
6354;SDS011;3210;48.708;9.030;2023-05-29T12:40:50;5.70;;;3.57;;
6354;SDS011;3210;48.708;9.030;2023-05-29T12:43:18;6.07;;;2.40;;
6354;SDS011;3210;48.708;9.030;2023-05-29T12:45:44;5.50;;;3.90;;
6354;SDS011;3210;48.708;9.030;2023-05-29T12:48:12;7.83;;;3.03;;
6354;SDS011;3210;48.708;9.030;2023-05-29T12:50:39;6.10;;;3.67;;
6354;SDS011;3210;48.708;9.030;2023-05-29T12:53:06;5.30;;;2.60;;
6354;SDS011;3210;48.708;9.030;2023-05-29T12:55:34;4.00;;;2.83;;
6354;SDS011;3210;48.708;9.030;2023-05-29T12:58:05;4.37;;;2.33;;
6354;SDS011;3210;48.708;9.030;2023-05-29T13:00:33;4.60;;;2.47;;
6354;SDS011;3210;48.708;9.030;2023-05-29T13:03:01;3.00;;;2.50;;
6354;SDS011;3210;48.708;9.030;2023-05-29T13:05:28;2.93;;;2.57;;
6354;SDS011;3210;48.708;9.030;2023-05-29T13:07:55;7.37;;;3.00;;
6354;SDS011;3210;48.708;9.030;2023-05-29T13:10:23;5.83;;;2.87;;
6354;SDS011;3210;48.708;9.030;2023-05-29T13:12:52;3.20;;;2.73;;
6354;SDS011;3210;48.708;9.030;2023-05-29T13:15:21;3.57;;;2.40;;
6354;SDS011;3210;48.708;9.030;2023-05-29T13:17:49;5.97;;;2.93;;
6354;SDS011;3210;48.708;9.030;2023-05-29T13:20:16;4.30;;;2.60;;
6354;SDS011;3210;48.708;9.030;2023-05-29T13:22:44;2.97;;;2.53;;
6354;SDS011;3210;48.708;9.030;2023-05-29T13:25:12;5.47;;;2.50;;
6354;SDS011;3210;48.708;9.030;2023-05-29T13:27:41;4.90;;;2.43;;
6354;SDS011;3210;48.708;9.030;2023-05-29T13:30:10;4.13;;;2.30;;
6354;SDS011;3210;48.708;9.030;2023-05-29T13:32:39;4.17;;;3.00;;
6354;SDS011;3210;48.708;9.030;2023-05-29T13:35:06;4.20;;;2.37;;
6354;SDS011;3210;48.708;9.030;2023-05-29T13:37:34;5.57;;;3.60;;
6354;SDS011;3210;48.708;9.030;2023-05-29T13:40:02;5.07;;;3.27;;
6354;SDS011;3210;48.708;9.030;2023-05-29T13:42:29;5.30;;;2.93;;
6354;SDS011;3210;48.708;9.030;2023-05-29T13:44:56;3.90;;;2.37;;
6354;SDS011;3210;48.708;9.030;2023-05-29T13:47:23;3.67;;;2.67;;
6354;SDS011;3210;48.708;9.030;2023-05-29T13:49:54;5.20;;;3.07;;
6354;SDS011;3210;48.708;9.030;2023-05-29T13:52:21;9.77;;;3.60;;
6354;SDS011;3210;48.708;9.030;2023-05-29T13:54:48;2.40;;;2.20;;
6354;SDS011;3210;48.708;9.030;2023-05-29T13:57:15;3.77;;;2.87;;
6354;SDS011;3210;48.708;9.030;2023-05-29T13:59:42;3.90;;;2.70;;
6354;SDS011;3210;48.708;9.030;2023-05-29T14:02:08;3.03;;;2.70;;
6354;SDS011;3210;48.708;9.030;2023-05-29T14:04:35;7.57;;;3.30;;
6354;SDS011;3210;48.708;9.030;2023-05-29T14:07:05;4.47;;;3.10;;
6354;SDS011;3210;48.708;9.030;2023-05-29T14:09:32;11.60;;;3.70;;
6354;SDS011;3210;48.708;9.030;2023-05-29T14:11:58;9.10;;;2.97;;
6354;SDS011;3210;48.708;9.030;2023-05-29T14:14:27;5.60;;;3.03;;
6354;SDS011;3210;48.708;9.030;2023-05-29T14:16:54;5.70;;;3.10;;
6354;SDS011;3210;48.708;9.030;2023-05-29T14:19:21;5.60;;;3.00;;
6354;SDS011;3210;48.708;9.030;2023-05-29T14:21:48;5.50;;;2.80;;
6354;SDS011;3210;48.708;9.030;2023-05-29T14:24:16;4.23;;;3.40;;
6354;SDS011;3210;48.708;9.030;2023-05-29T14:26:43;3.30;;;3.00;;
6354;SDS011;3210;48.708;9.030;2023-05-29T14:29:12;5.90;;;2.90;;
6354;SDS011;3210;48.708;9.030;2023-05-29T14:31:39;3.40;;;2.83;;
6354;SDS011;3210;48.708;9.030;2023-05-29T14:34:06;5.83;;;3.00;;
6354;SDS011;3210;48.708;9.030;2023-05-29T14:36:33;5.80;;;2.70;;
6354;SDS011;3210;48.708;9.030;2023-05-29T14:39:00;6.10;;;3.43;;
6354;SDS011;3210;48.708;9.030;2023-05-29T14:41:28;5.40;;;2.90;;
6354;SDS011;3210;48.708;9.030;2023-05-29T14:43:55;4.90;;;2.77;;
6354;SDS011;3210;48.708;9.030;2023-05-29T14:46:23;6.70;;;3.40;;
6354;SDS011;3210;48.708;9.030;2023-05-29T14:48:50;3.73;;;3.00;;
6354;SDS011;3210;48.708;9.030;2023-05-29T14:51:17;2.80;;;2.37;;
6354;SDS011;3210;48.708;9.030;2023-05-29T14:53:45;3.10;;;2.80;;
6354;SDS011;3210;48.708;9.030;2023-05-29T14:56:12;3.90;;;2.60;;
6354;SDS011;3210;48.708;9.030;2023-05-29T14:58:40;5.67;;;3.57;;
6354;SDS011;3210;48.708;9.030;2023-05-29T15:01:07;3.50;;;2.57;;
6354;SDS011;3210;48.708;9.030;2023-05-29T15:03:34;4.93;;;2.80;;
6354;SDS011;3210;48.708;9.030;2023-05-29T15:06:01;5.57;;;3.00;;
6354;SDS011;3210;48.708;9.030;2023-05-29T15:08:28;4.10;;;3.13;;
6354;SDS011;3210;48.708;9.030;2023-05-29T15:10:59;3.20;;;2.90;;
6354;SDS011;3210;48.708;9.030;2023-05-29T15:13:26;3.93;;;2.70;;
6354;SDS011;3210;48.708;9.030;2023-05-29T15:15:54;4.67;;;3.27;;
6354;SDS011;3210;48.708;9.030;2023-05-29T15:18:24;4.23;;;2.90;;
6354;SDS011;3210;48.708;9.030;2023-05-29T15:20:51;5.30;;;2.97;;
6354;SDS011;3210;48.708;9.030;2023-05-29T15:23:18;5.60;;;3.00;;
6354;SDS011;3210;48.708;9.030;2023-05-29T15:25:47;4.27;;;2.70;;
6354;SDS011;3210;48.708;9.030;2023-05-29T15:28:14;6.47;;;3.07;;
6354;SDS011;3210;48.708;9.030;2023-05-29T15:30:41;3.83;;;2.80;;
6354;SDS011;3210;48.708;9.030;2023-05-29T15:33:09;4.37;;;2.60;;
6354;SDS011;3210;48.708;9.030;2023-05-29T15:35:36;4.97;;;3.23;;
6354;SDS011;3210;48.708;9.030;2023-05-29T15:38:03;6.90;;;2.23;;
6354;SDS011;3210;48.708;9.030;2023-05-29T15:40:30;3.77;;;2.43;;
6354;SDS011;3210;48.708;9.030;2023-05-29T15:42:57;3.50;;;2.23;;
6354;SDS011;3210;48.708;9.030;2023-05-29T15:45:23;2.53;;;2.13;;
6354;SDS011;3210;48.708;9.030;2023-05-29T15:47:51;6.40;;;3.37;;
6354;SDS011;3210;48.708;9.030;2023-05-29T15:50:20;4.00;;;2.50;;
6354;SDS011;3210;48.708;9.030;2023-05-29T15:52:47;3.43;;;2.70;;
6354;SDS011;3210;48.708;9.030;2023-05-29T15:55:14;3.00;;;2.60;;
6354;SDS011;3210;48.708;9.030;2023-05-29T15:57:41;3.90;;;2.63;;
6354;SDS011;3210;48.708;9.030;2023-05-29T16:00:09;4.50;;;3.37;;
6354;SDS011;3210;48.708;9.030;2023-05-29T16:02:37;5.00;;;2.60;;
6354;SDS011;3210;48.708;9.030;2023-05-29T16:05:05;7.13;;;2.60;;
6354;SDS011;3210;48.708;9.030;2023-05-29T16:07:34;8.27;;;3.00;;
6354;SDS011;3210;48.708;9.030;2023-05-29T16:10:02;3.90;;;2.20;;
6354;SDS011;3210;48.708;9.030;2023-05-29T16:12:29;3.13;;;2.20;;
6354;SDS011;3210;48.708;9.030;2023-05-29T16:14:56;3.10;;;2.50;;
6354;SDS011;3210;48.708;9.030;2023-05-29T16:17:24;3.30;;;2.80;;
6354;SDS011;3210;48.708;9.030;2023-05-29T16:19:51;4.17;;;3.47;;
6354;SDS011;3210;48.708;9.030;2023-05-29T16:22:20;2.97;;;2.33;;
6354;SDS011;3210;48.708;9.030;2023-05-29T16:24:49;3.33;;;2.20;;
6354;SDS011;3210;48.708;9.030;2023-05-29T16:27:16;7.50;;;2.80;;
6354;SDS011;3210;48.708;9.030;2023-05-29T16:29:43;2.90;;;2.50;;
6354;SDS011;3210;48.708;9.030;2023-05-29T16:32:10;3.40;;;2.30;;
6354;SDS011;3210;48.708;9.030;2023-05-29T16:34:37;7.43;;;2.27;;
6354;SDS011;3210;48.708;9.030;2023-05-29T16:37:04;3.40;;;2.30;;
6354;SDS011;3210;48.708;9.030;2023-05-29T16:39:33;2.73;;;2.53;;
6354;SDS011;3210;48.708;9.030;2023-05-29T16:42:01;3.10;;;2.70;;
6354;SDS011;3210;48.708;9.030;2023-05-29T16:44:29;3.73;;;2.50;;
6354;SDS011;3210;48.708;9.030;2023-05-29T16:46:56;3.87;;;2.90;;
6354;SDS011;3210;48.708;9.030;2023-05-29T16:49:22;4.70;;;2.80;;
6354;SDS011;3210;48.708;9.030;2023-05-29T16:51:50;3.03;;;2.13;;
6354;SDS011;3210;48.708;9.030;2023-05-29T16:54:18;12.90;;;2.40;;
6354;SDS011;3210;48.708;9.030;2023-05-29T16:56:44;4.20;;;2.63;;
6354;SDS011;3210;48.708;9.030;2023-05-29T16:59:13;5.97;;;2.60;;
6354;SDS011;3210;48.708;9.030;2023-05-29T17:01:41;4.50;;;2.73;;
6354;SDS011;3210;48.708;9.030;2023-05-29T17:04:07;7.77;;;2.60;;
6354;SDS011;3210;48.708;9.030;2023-05-29T17:06:36;3.47;;;1.93;;
6354;SDS011;3210;48.708;9.030;2023-05-29T17:09:03;2.57;;;2.33;;
6354;SDS011;3210;48.708;9.030;2023-05-29T17:11:31;8.33;;;2.30;;
6354;SDS011;3210;48.708;9.030;2023-05-29T17:13:58;2.90;;;2.20;;
6354;SDS011;3210;48.708;9.030;2023-05-29T17:16:26;3.27;;;2.77;;
6354;SDS011;3210;48.708;9.030;2023-05-29T17:18:53;3.07;;;2.37;;
6354;SDS011;3210;48.708;9.030;2023-05-29T17:21:20;3.00;;;2.07;;
6354;SDS011;3210;48.708;9.030;2023-05-29T17:23:47;4.70;;;2.43;;
6354;SDS011;3210;48.708;9.030;2023-05-29T17:26:19;2.33;;;2.13;;
6354;SDS011;3210;48.708;9.030;2023-05-29T17:28:47;4.40;;;1.93;;
6354;SDS011;3210;48.708;9.030;2023-05-29T17:31:14;2.27;;;2.07;;
6354;SDS011;3210;48.708;9.030;2023-05-29T17:33:42;4.13;;;3.27;;
6354;SDS011;3210;48.708;9.030;2023-05-29T17:36:09;3.27;;;2.57;;
6354;SDS011;3210;48.708;9.030;2023-05-29T17:38:37;4.47;;;2.67;;
6354;SDS011;3210;48.708;9.030;2023-05-29T17:41:04;4.07;;;2.47;;
6354;SDS011;3210;48.708;9.030;2023-05-29T17:43:31;3.90;;;2.70;;
6354;SDS011;3210;48.708;9.030;2023-05-29T17:45:58;6.23;;;2.53;;
6354;SDS011;3210;48.708;9.030;2023-05-29T17:48:25;2.13;;;1.93;;
6354;SDS011;3210;48.708;9.030;2023-05-29T17:50:53;4.73;;;2.20;;
6354;SDS011;3210;48.708;9.030;2023-05-29T17:53:20;2.10;;;1.87;;
6354;SDS011;3210;48.708;9.030;2023-05-29T17:55:47;6.20;;;2.70;;
6354;SDS011;3210;48.708;9.030;2023-05-29T17:58:13;4.50;;;2.70;;
6354;SDS011;3210;48.708;9.030;2023-05-29T18:00:40;4.27;;;2.70;;
6354;SDS011;3210;48.708;9.030;2023-05-29T18:03:07;2.57;;;2.37;;
6354;SDS011;3210;48.708;9.030;2023-05-29T18:05:34;3.27;;;2.27;;
6354;SDS011;3210;48.708;9.030;2023-05-29T18:08:02;4.40;;;2.90;;
6354;SDS011;3210;48.708;9.030;2023-05-29T18:10:29;3.07;;;2.63;;
6354;SDS011;3210;48.708;9.030;2023-05-29T18:12:56;7.70;;;2.57;;
6354;SDS011;3210;48.708;9.030;2023-05-29T18:15:22;3.83;;;3.00;;
6354;SDS011;3210;48.708;9.030;2023-05-29T18:17:49;4.30;;;2.70;;
6354;SDS011;3210;48.708;9.030;2023-05-29T18:20:16;5.10;;;3.30;;
6354;SDS011;3210;48.708;9.030;2023-05-29T18:22:43;5.23;;;2.67;;
6354;SDS011;3210;48.708;9.030;2023-05-29T18:25:12;4.50;;;2.17;;
6354;SDS011;3210;48.708;9.030;2023-05-29T18:27:39;2.50;;;2.20;;
6354;SDS011;3210;48.708;9.030;2023-05-29T18:30:09;2.50;;;2.30;;
6354;SDS011;3210;48.708;9.030;2023-05-29T18:32:37;3.50;;;2.50;;
6354;SDS011;3210;48.708;9.030;2023-05-29T18:35:05;2.90;;;2.53;;
6354;SDS011;3210;48.708;9.030;2023-05-29T18:37:32;2.83;;;2.53;;
6354;SDS011;3210;48.708;9.030;2023-05-29T18:39:59;3.50;;;2.90;;
6354;SDS011;3210;48.708;9.030;2023-05-29T18:42:31;5.70;;;3.23;;
6354;SDS011;3210;48.708;9.030;2023-05-29T18:44:58;5.83;;;3.30;;
6354;SDS011;3210;48.708;9.030;2023-05-29T18:47:25;4.23;;;2.90;;
6354;SDS011;3210;48.708;9.030;2023-05-29T18:49:52;4.83;;;3.17;;
6354;SDS011;3210;48.708;9.030;2023-05-29T18:52:20;4.27;;;2.83;;
6354;SDS011;3210;48.708;9.030;2023-05-29T18:54:47;6.00;;;2.60;;
6354;SDS011;3210;48.708;9.030;2023-05-29T18:57:14;4.57;;;2.90;;
6354;SDS011;3210;48.708;9.030;2023-05-29T18:59:42;3.20;;;2.63;;
6354;SDS011;3210;48.708;9.030;2023-05-29T19:02:09;2.60;;;2.30;;
6354;SDS011;3210;48.708;9.030;2023-05-29T19:04:36;3.20;;;2.90;;
6354;SDS011;3210;48.708;9.030;2023-05-29T19:07:03;13.53;;;3.23;;
6354;SDS011;3210;48.708;9.030;2023-05-29T19:09:31;3.43;;;2.80;;
6354;SDS011;3210;48.708;9.030;2023-05-29T19:11:58;2.70;;;2.50;;
6354;SDS011;3210;48.708;9.030;2023-05-29T19:14:24;4.87;;;3.07;;
6354;SDS011;3210;48.708;9.030;2023-05-29T19:16:52;5.43;;;3.17;;
6354;SDS011;3210;48.708;9.030;2023-05-29T19:19:19;3.73;;;2.60;;
6354;SDS011;3210;48.708;9.030;2023-05-29T19:21:46;4.60;;;3.10;;
6354;SDS011;3210;48.708;9.030;2023-05-29T19:24:14;9.13;;;2.60;;
6354;SDS011;3210;48.708;9.030;2023-05-29T19:26:43;4.20;;;3.20;;
6354;SDS011;3210;48.708;9.030;2023-05-29T19:29:10;3.63;;;3.33;;
6354;SDS011;3210;48.708;9.030;2023-05-29T19:31:37;4.73;;;3.00;;
6354;SDS011;3210;48.708;9.030;2023-05-29T19:34:05;4.60;;;3.33;;
6354;SDS011;3210;48.708;9.030;2023-05-29T19:36:33;8.80;;;3.23;;
6354;SDS011;3210;48.708;9.030;2023-05-29T19:39:00;3.53;;;3.20;;
6354;SDS011;3210;48.708;9.030;2023-05-29T19:41:27;5.60;;;3.07;;
6354;SDS011;3210;48.708;9.030;2023-05-29T19:43:54;5.90;;;2.47;;
6354;SDS011;3210;48.708;9.030;2023-05-29T19:46:21;3.73;;;3.10;;
6354;SDS011;3210;48.708;9.030;2023-05-29T19:48:47;3.50;;;3.20;;
6354;SDS011;3210;48.708;9.030;2023-05-29T19:51:16;7.37;;;3.30;;
6354;SDS011;3210;48.708;9.030;2023-05-29T19:53:43;3.00;;;2.60;;
6354;SDS011;3210;48.708;9.030;2023-05-29T19:56:09;5.83;;;3.67;;
6354;SDS011;3210;48.708;9.030;2023-05-29T19:58:37;8.53;;;3.47;;
6354;SDS011;3210;48.708;9.030;2023-05-29T20:01:04;5.83;;;3.53;;
6354;SDS011;3210;48.708;9.030;2023-05-29T20:03:31;5.27;;;2.87;;
6354;SDS011;3210;48.708;9.030;2023-05-29T20:05:59;7.57;;;3.17;;
6354;SDS011;3210;48.708;9.030;2023-05-29T20:08:27;4.93;;;2.90;;
6354;SDS011;3210;48.708;9.030;2023-05-29T20:10:54;4.80;;;3.40;;
6354;SDS011;3210;48.708;9.030;2023-05-29T20:13:21;8.20;;;3.80;;
6354;SDS011;3210;48.708;9.030;2023-05-29T20:15:51;3.20;;;2.77;;
6354;SDS011;3210;48.708;9.030;2023-05-29T20:18:18;5.80;;;3.10;;
6354;SDS011;3210;48.708;9.030;2023-05-29T20:20:44;3.30;;;2.60;;
6354;SDS011;3210;48.708;9.030;2023-05-29T20:23:11;3.10;;;2.80;;
6354;SDS011;3210;48.708;9.030;2023-05-29T20:25:40;5.00;;;3.50;;
6354;SDS011;3210;48.708;9.030;2023-05-29T20:28:06;3.40;;;3.10;;
6354;SDS011;3210;48.708;9.030;2023-05-29T20:30:33;3.37;;;2.70;;
6354;SDS011;3210;48.708;9.030;2023-05-29T20:33:00;5.37;;;3.30;;
6354;SDS011;3210;48.708;9.030;2023-05-29T20:35:28;6.10;;;3.00;;
6354;SDS011;3210;48.708;9.030;2023-05-29T20:37:55;6.17;;;3.60;;
6354;SDS011;3210;48.708;9.030;2023-05-29T20:40:22;5.00;;;3.20;;
6354;SDS011;3210;48.708;9.030;2023-05-29T20:42:50;10.47;;;3.30;;
6354;SDS011;3210;48.708;9.030;2023-05-29T20:45:20;6.63;;;3.40;;
6354;SDS011;3210;48.708;9.030;2023-05-29T20:47:47;7.03;;;3.27;;
6354;SDS011;3210;48.708;9.030;2023-05-29T20:50:13;6.47;;;3.40;;
6354;SDS011;3210;48.708;9.030;2023-05-29T20:52:40;4.10;;;3.43;;
6354;SDS011;3210;48.708;9.030;2023-05-29T20:55:08;3.03;;;2.60;;
6354;SDS011;3210;48.708;9.030;2023-05-29T20:57:35;10.60;;;3.60;;
6354;SDS011;3210;48.708;9.030;2023-05-29T21:00:03;4.37;;;2.87;;
6354;SDS011;3210;48.708;9.030;2023-05-29T21:02:36;6.10;;;3.70;;
6354;SDS011;3210;48.708;9.030;2023-05-29T21:05:04;6.30;;;2.70;;
6354;SDS011;3210;48.708;9.030;2023-05-29T21:07:32;4.70;;;3.47;;
6354;SDS011;3210;48.708;9.030;2023-05-29T21:10:01;7.13;;;3.33;;
6354;SDS011;3210;48.708;9.030;2023-05-29T21:12:28;8.90;;;3.90;;
6354;SDS011;3210;48.708;9.030;2023-05-29T21:14:55;4.67;;;3.23;;
6354;SDS011;3210;48.708;9.030;2023-05-29T21:17:23;5.40;;;3.60;;
6354;SDS011;3210;48.708;9.030;2023-05-29T21:19:50;4.03;;;3.43;;
6354;SDS011;3210;48.708;9.030;2023-05-29T21:22:17;4.87;;;2.40;;
6354;SDS011;3210;48.708;9.030;2023-05-29T21:24:44;8.17;;;3.67;;
6354;SDS011;3210;48.708;9.030;2023-05-29T21:27:11;4.63;;;3.10;;
6354;SDS011;3210;48.708;9.030;2023-05-29T21:29:38;9.70;;;3.30;;
6354;SDS011;3210;48.708;9.030;2023-05-29T21:32:07;4.63;;;3.10;;
6354;SDS011;3210;48.708;9.030;2023-05-29T21:34:36;6.20;;;3.53;;
6354;SDS011;3210;48.708;9.030;2023-05-29T21:37:05;6.47;;;2.87;;
6354;SDS011;3210;48.708;9.030;2023-05-29T21:39:32;7.73;;;3.17;;
6354;SDS011;3210;48.708;9.030;2023-05-29T21:41:59;4.07;;;3.17;;
6354;SDS011;3210;48.708;9.030;2023-05-29T21:44:27;5.07;;;3.50;;
6354;SDS011;3210;48.708;9.030;2023-05-29T21:46:55;5.00;;;3.40;;
6354;SDS011;3210;48.708;9.030;2023-05-29T21:49:22;5.23;;;3.50;;
6354;SDS011;3210;48.708;9.030;2023-05-29T21:51:50;6.17;;;2.90;;
6354;SDS011;3210;48.708;9.030;2023-05-29T21:54:17;6.27;;;3.43;;